createdAt,value
2023-12-30T00:00:32.651Z,100037.78
2023-12-30T00:03:03.790Z,100035.22
2023-12-30T00:05:33.998Z,100045.53
2023-12-30T00:08:04.657Z,100041.25
2023-12-30T00:10:34.608Z,100046.41
2023-12-30T00:13:05.098Z,100048.13
2023-12-30T00:15:35.213Z,100049.00
2023-12-30T00:18:05.729Z,100046.38
2023-12-30T00:20:35.786Z,100049.81
2023-12-30T00:23:06.082Z,100038.59
2023-12-30T00:25:36.307Z,100041.22
2023-12-30T00:28:07.355Z,100042.13
2023-12-30T00:30:37.514Z,100039.50
2023-12-30T00:33:08.252Z,100039.50
2023-12-30T00:35:38.396Z,100040.38
2023-12-30T00:38:08.843Z,100031.72
2023-12-30T00:40:38.980Z,100032.66
2023-12-30T00:43:09.377Z,100033.50
2023-12-30T00:45:40.030Z,100045.53
2023-12-30T00:48:10.508Z,100044.69
2023-12-30T00:50:40.719Z,100049.00
2023-12-30T00:53:11.189Z,100041.22
2023-12-30T00:55:41.252Z,100042.91
2023-12-30T00:58:11.896Z,100045.50
2023-12-30T01:00:42.064Z,100043.75
2023-12-30T01:03:12.442Z,100054.06
2023-12-30T01:05:43.040Z,100039.38
2023-12-30T01:08:13.628Z,100040.19
2023-12-30T01:10:43.740Z,100041.06
2023-12-30T01:13:14.199Z,100043.66
2023-12-30T01:15:44.263Z,100028.13
2023-12-30T01:18:15.145Z,100020.28
2023-12-30T01:20:45.397Z,100020.28
2023-12-30T01:23:16.098Z,100018.53
2023-12-30T01:25:46.069Z,100023.69
2023-12-30T01:28:16.527Z,100018.47
2023-12-30T01:30:46.454Z,100015.88
2023-12-30T01:33:17.089Z,100017.63
2023-12-30T01:35:47.243Z,100002.06
2023-12-30T01:38:18.312Z,100003.78
2023-12-30T01:40:48.328Z,99992.50
2023-12-30T01:43:28.690Z,99978.63
2023-12-30T01:46:04.730Z,99978.63
2023-12-30T01:48:36.251Z,99980.34
2023-12-30T01:51:23.964Z,99991.53
2023-12-30T01:53:56.874Z,99990.69
2023-12-30T01:56:28.708Z,99996.75
2023-12-30T01:59:01.088Z,99987.28
2023-12-30T02:01:31.251Z,99991.56
2023-12-30T02:04:02.166Z,99975.19
2023-12-30T02:06:32.195Z,99976.88
2023-12-30T02:09:03.643Z,99972.50
2023-12-30T02:11:34.594Z,99955.25
2023-12-30T02:14:04.987Z,99967.31
2023-12-30T02:16:34.955Z,99959.50
2023-12-30T02:19:05.445Z,99952.56
2023-12-30T02:21:35.720Z,99958.63
2023-12-30T02:24:06.214Z,99955.16
2023-12-30T02:26:36.446Z,99960.34
2023-12-30T02:29:10.386Z,99961.22
2023-12-30T02:31:47.149Z,99952.59
2023-12-30T02:34:19.124Z,99966.34
2023-12-30T02:36:49.560Z,99960.28
2023-12-30T02:39:20.143Z,99947.28
2023-12-30T02:41:50.380Z,99948.13
2023-12-30T02:44:22.378Z,99942.94
2023-12-30T02:46:52.548Z,99936.88
2023-12-30T02:49:23.025Z,99936.84
2023-12-30T02:51:55.213Z,99929.94
2023-12-30T02:54:25.752Z,99933.41
2023-12-30T02:56:57.161Z,99922.22
2023-12-30T02:59:27.358Z,99925.66
2023-12-30T03:01:57.594Z,99934.34
2023-12-30T03:04:28.130Z,99923.03
2023-12-30T03:06:58.280Z,99921.28
2023-12-30T03:09:28.687Z,99918.69
2023-12-30T03:11:58.680Z,99920.41
2023-12-30T03:14:29.355Z,99917.81
2023-12-30T03:16:59.515Z,99918.69
2023-12-30T03:19:29.934Z,99927.34
2023-12-30T03:22:00.169Z,99925.56
2023-12-30T03:24:30.678Z,99918.56
2023-12-30T03:27:01.119Z,99907.28
2023-12-30T03:29:31.445Z,99911.56
2023-12-30T03:32:01.625Z,99908.13
2023-12-30T03:34:31.942Z,99914.16
2023-12-30T03:37:02.264Z,99912.50
2023-12-30T03:39:32.645Z,99911.69
2023-12-30T03:42:02.962Z,99914.28
2023-12-30T03:44:33.892Z,99922.13
2023-12-30T03:47:04.067Z,99924.72
2023-12-30T03:49:35.026Z,99917.81
2023-12-30T03:52:05.382Z,99919.53
2023-12-30T03:54:36.719Z,99923.00
2023-12-30T03:57:06.921Z,99928.16
2023-12-30T03:59:38.195Z,99929.00
2023-12-30T04:02:08.214Z,99931.59
2023-12-30T04:04:38.789Z,99928.19
2023-12-30T04:07:08.947Z,99932.56
2023-12-30T04:09:39.389Z,99931.75
2023-12-30T04:12:10.785Z,99934.44
2023-12-30T04:14:41.715Z,99931.16
2023-12-30T04:17:11.702Z,99938.97
2023-12-30T04:19:42.313Z,99937.41
2023-12-30T04:22:12.619Z,99942.69
2023-12-30T04:24:42.956Z,99934.13
2023-12-30T04:27:12.892Z,99936.78
2023-12-30T04:29:43.363Z,99955.81
2023-12-30T04:32:13.368Z,99942.91
2023-12-30T04:34:43.824Z,99948.94
2023-12-30T04:37:15.010Z,99937.72
2023-12-30T04:39:45.438Z,99939.53
2023-12-30T04:42:16.277Z,99930.03
2023-12-30T04:44:46.501Z,99942.06
2023-12-30T04:47:16.515Z,99937.69
2023-12-30T04:49:46.966Z,99953.28
2023-12-30T04:52:17.007Z,99957.66
2023-12-30T04:54:47.608Z,99956.81
2023-12-30T04:57:17.854Z,99956.91
2023-12-30T04:59:48.299Z,99966.44
2023-12-30T05:02:18.376Z,99961.28
2023-12-30T05:04:48.972Z,99967.34
2023-12-30T05:07:19.102Z,99965.59
2023-12-30T05:09:51.325Z,99956.97
2023-12-30T05:12:21.317Z,99957.88
2023-12-30T05:14:51.898Z,99955.28
2023-12-30T05:17:22.032Z,99961.28
2023-12-30T05:19:52.958Z,99972.47
2023-12-30T05:22:23.147Z,99970.78
2023-12-30T05:24:53.675Z,99975.06
2023-12-30T05:27:23.815Z,99982.84
2023-12-30T05:29:54.086Z,99983.69
2023-12-30T05:32:24.347Z,99982.84
2023-12-30T05:34:54.922Z,99988.00
2023-12-30T05:37:25.139Z,99984.56
2023-12-30T05:39:55.573Z,99987.19
2023-12-30T05:42:25.957Z,99984.59
2023-12-30T05:44:56.453Z,99983.78
2023-12-30T05:47:26.546Z,99986.34
2023-12-30T05:49:57.107Z,99993.28
2023-12-30T05:52:27.384Z,100002.75
2023-12-30T05:54:57.990Z,100015.72
2023-12-30T05:57:28.469Z,100011.41
2023-12-30T05:59:58.965Z,100026.06
2023-12-30T06:02:29.147Z,100030.38
2023-12-30T06:04:59.752Z,100027.81
2023-12-30T06:07:29.963Z,100026.06
2023-12-30T06:10:00.499Z,100023.47
2023-12-30T06:12:30.634Z,100026.91
2023-12-30T06:15:01.053Z,100020.88
2023-12-30T06:17:31.626Z,100007.91
2023-12-30T06:20:02.110Z,100013.06
2023-12-30T06:22:32.667Z,100004.44
2023-12-30T06:25:04.940Z,100015.66
2023-12-30T06:27:35.378Z,100014.81
2023-12-30T06:30:06.572Z,100020.84
2023-12-30T06:32:36.848Z,100013.97
2023-12-30T06:35:07.550Z,100016.50
2023-12-30T06:37:37.792Z,100029.47
2023-12-30T06:40:09.179Z,100032.94
2023-12-30T06:42:39.747Z,100039.00
2023-12-30T06:45:10.558Z,100041.59
2023-12-30T06:47:42.154Z,100046.78
2023-12-30T06:50:13.541Z,100053.69
2023-12-30T06:52:43.714Z,100063.16
2023-12-30T06:55:20.923Z,100063.16
2023-12-30T06:57:55.876Z,100052.81
2023-12-30T07:00:26.392Z,100068.38
2023-12-30T07:02:56.371Z,100068.38
2023-12-30T07:05:26.965Z,100066.69
2023-12-30T07:07:57.128Z,100077.88
2023-12-30T07:10:27.633Z,100076.97
2023-12-30T07:12:57.573Z,100083.03
2023-12-30T07:15:28.077Z,100095.97
2023-12-30T07:17:58.128Z,100094.25
2023-12-30T07:20:28.547Z,100107.22
2023-12-30T07:22:59.393Z,100108.06
2023-12-30T07:25:30.011Z,100095.97
2023-12-30T07:28:00.386Z,100086.50
2023-12-30T07:30:31.013Z,100095.09
2023-12-30T07:33:02.948Z,100100.25
2023-12-30T07:35:33.400Z,100107.16
2023-12-30T07:38:03.599Z,100112.34
2023-12-30T07:40:34.047Z,100115.75
2023-12-30T07:43:05.410Z,100117.47
2023-12-30T07:45:36.508Z,100120.09
2023-12-30T07:48:06.788Z,100112.31
2023-12-30T07:50:37.031Z,100109.72
2023-12-30T07:53:07.335Z,100112.31
2023-12-30T07:55:37.861Z,100127.84
2023-12-30T07:58:08.131Z,100125.25
2023-12-30T08:00:39.307Z,100117.47
2023-12-30T08:03:09.948Z,100113.16
2023-12-30T08:05:40.858Z,100120.94
2023-12-30T08:08:13.454Z,100127.84
2023-12-30T08:10:43.706Z,100126.09
2023-12-30T08:13:13.907Z,100133.84
2023-12-30T08:15:44.237Z,100130.38
2023-12-30T08:18:14.527Z,100138.13
2023-12-30T08:20:44.906Z,100134.69
2023-12-30T08:23:15.130Z,100138.13
2023-12-30T08:25:45.742Z,100139.00
2023-12-30T08:28:15.910Z,100144.16
2023-12-30T08:30:47.689Z,100148.47
2023-12-30T08:33:18.096Z,100143.28
2023-12-30T08:35:50.482Z,100149.34
2023-12-30T08:38:20.879Z,100144.16
2023-12-30T08:40:51.930Z,100147.63
2023-12-30T08:43:22.185Z,100153.66
2023-12-30T08:45:52.850Z,100160.53
2023-12-30T08:48:23.104Z,100147.56
2023-12-30T08:50:53.698Z,100152.75
2023-12-30T08:53:26.515Z,100154.47
2023-12-30T08:55:57.052Z,100159.66
2023-12-30T08:58:27.208Z,100157.94
2023-12-30T09:00:57.837Z,100163.13
2023-12-30T09:03:27.969Z,100167.41
2023-12-30T09:05:58.464Z,100165.69
2023-12-30T09:08:28.658Z,100165.72
2023-12-30T09:10:59.813Z,100170.88
2023-12-30T09:13:30.094Z,100180.34
2023-12-30T09:16:00.536Z,100171.72
2023-12-30T09:18:30.955Z,100170.91
2023-12-30T09:21:01.157Z,100184.72
2023-12-30T09:23:31.897Z,100176.97
2023-12-30T09:26:02.306Z,100192.47
2023-12-30T09:28:32.255Z,100184.72
2023-12-30T09:31:02.633Z,100187.31
2023-12-30T09:33:33.091Z,100179.53
2023-12-30T09:36:03.946Z,100187.31
2023-12-30T09:38:34.003Z,100189.91
2023-12-30T09:41:04.411Z,100190.81
2023-12-30T09:43:34.843Z,100185.66
2023-12-30T09:46:06.208Z,100188.25
2023-12-30T09:48:37.799Z,100192.53
2023-12-30T09:51:08.703Z,100186.50
2023-12-30T09:53:39.560Z,100183.91
2023-12-30T09:56:13.017Z,100177.03
2023-12-30T09:58:45.007Z,100194.25
2023-12-30T10:01:15.794Z,100192.53
2023-12-30T10:03:46.132Z,100189.97
2023-12-30T10:06:21.503Z,100193.44
2023-12-30T10:08:51.880Z,100182.19
2023-12-30T10:11:22.090Z,100192.53
2023-12-30T10:13:55.634Z,100182.19
2023-12-30T10:16:26.391Z,100178.75
2023-12-30T10:18:57.989Z,100183.09
2023-12-30T10:21:29.495Z,100178.78
2023-12-30T10:24:05.496Z,100177.03
2023-12-30T10:26:38.625Z,100183.09
2023-12-30T10:29:09.591Z,100183.09
2023-12-30T10:31:40.563Z,100196.03
2023-12-30T10:34:10.880Z,100193.44
2023-12-30T10:36:41.786Z,100203.78
2023-12-30T10:39:16.409Z,100205.53
2023-12-30T10:41:47.053Z,100207.25
2023-12-30T10:44:17.603Z,100208.97
2023-12-30T10:46:50.799Z,100217.63
2023-12-30T10:49:23.223Z,100215.88
2023-12-30T10:51:55.766Z,100225.38
2023-12-30T10:54:40.753Z,100230.56
2023-12-30T10:57:16.168Z,100229.66
2023-12-30T10:59:50.829Z,100234.00
2023-12-30T11:02:21.710Z,100231.38
2023-12-30T11:04:54.177Z,100237.41
2023-12-30T11:07:28.016Z,100252.09
2023-12-30T11:09:58.499Z,100243.44
2023-12-30T11:12:31.947Z,100249.47
2023-12-30T11:15:02.124Z,100255.50
2023-12-30T11:17:36.808Z,100264.16
2023-12-30T11:20:24.281Z,100253.78
2023-12-30T11:22:58.793Z,100271.06
2023-12-30T11:25:39.120Z,100263.31
2023-12-30T11:28:27.402Z,100264.16
2023-12-30T11:31:00.369Z,100265.03
2023-12-30T11:33:30.912Z,100270.22
2023-12-30T11:36:04.609Z,100280.59
2023-12-30T11:38:36.975Z,100279.75
2023-12-30T11:41:07.220Z,100293.53
2023-12-30T11:43:37.537Z,100290.09
2023-12-30T11:46:07.951Z,100297.00
2023-12-30T11:48:38.282Z,100301.31
2023-12-30T11:51:08.602Z,100303.06
2023-12-30T11:53:39.004Z,100309.09
2023-12-30T11:56:09.951Z,100315.13
2023-12-30T11:58:41.725Z,100333.28
2023-12-30T12:01:13.127Z,100304.78
2023-12-30T12:03:43.602Z,100314.28
2023-12-30T12:06:14.682Z,100313.41
2023-12-30T12:08:45.544Z,100323.78
2023-12-30T12:11:15.899Z,100328.94
2023-12-30T12:13:47.754Z,100325.50
2023-12-30T12:16:19.752Z,100327.22
2023-12-30T12:18:50.472Z,100323.75
2023-12-30T12:21:20.701Z,100339.31
2023-12-30T12:23:51.155Z,100340.16
2023-12-30T12:26:22.846Z,100353.13
2023-12-30T12:28:55.462Z,100352.25
2023-12-30T12:31:31.982Z,100355.69
2023-12-30T12:34:24.005Z,100383.31
2023-12-30T12:36:55.089Z,100371.25
2023-12-30T12:39:26.464Z,100368.63
2023-12-30T12:41:56.456Z,100375.53
2023-12-30T12:44:26.710Z,100370.34
2023-12-30T12:46:57.001Z,100368.63
2023-12-30T12:49:27.626Z,100375.50
2023-12-30T12:51:57.641Z,100379.78
2023-12-30T12:54:27.999Z,100370.28
2023-12-30T12:56:58.441Z,100374.66
2023-12-30T12:59:29.047Z,100375.53
2023-12-30T13:02:00.016Z,100379.91
2023-12-30T13:04:30.916Z,100376.41
2023-12-30T13:07:01.139Z,100378.16
2023-12-30T13:09:36.401Z,100382.47
2023-12-30T13:12:06.941Z,100395.41
2023-12-30T13:14:37.620Z,100389.34
2023-12-30T13:17:13.234Z,100396.28
2023-12-30T13:19:45.244Z,100398.00
2023-12-30T13:22:15.922Z,100400.59
2023-12-30T13:24:46.387Z,100403.19
2023-12-30T13:27:17.092Z,100403.22
2023-12-30T13:29:47.378Z,100408.38
2023-12-30T13:32:17.943Z,100409.25
2023-12-30T13:34:52.327Z,100407.50
2023-12-30T13:37:23.864Z,100413.56
2023-12-30T13:39:58.807Z,100411.84
2023-12-30T13:42:28.977Z,100410.97
2023-12-30T13:45:01.975Z,100423.94
2023-12-30T13:47:41.543Z,100413.56
2023-12-30T13:50:19.815Z,100410.97
2023-12-30T13:52:51.729Z,100421.34
2023-12-30T13:55:22.809Z,100420.47
2023-12-30T13:57:54.431Z,100427.38
2023-12-30T14:00:24.673Z,100435.16
2023-12-30T14:02:55.610Z,100423.94
2023-12-30T14:05:36.903Z,100433.41
2023-12-30T14:08:18.177Z,100442.91
2023-12-30T14:10:50.194Z,100436.84
2023-12-30T14:13:23.984Z,100446.34
2023-12-30T14:15:54.738Z,100456.72
2023-12-30T14:18:25.103Z,100446.38
2023-12-30T14:20:55.625Z,100442.06
2023-12-30T14:23:25.691Z,100447.22
2023-12-30T14:25:56.190Z,100453.25
2023-12-30T14:28:26.387Z,100463.59
2023-12-30T14:30:56.932Z,100460.16
2023-12-30T14:33:27.183Z,100480.88
2023-12-30T14:35:57.560Z,100464.44
2023-12-30T14:38:27.537Z,100473.09
2023-12-30T14:40:58.272Z,100476.53
2023-12-30T14:43:28.351Z,100477.41
2023-12-30T14:45:59.040Z,100480.00
2023-12-30T14:48:29.240Z,100486.03
2023-12-30T14:50:59.958Z,100485.19
2023-12-30T14:53:30.026Z,100491.22
2023-12-30T14:56:00.269Z,100502.44
2023-12-30T14:58:30.319Z,100501.63
2023-12-30T15:01:00.804Z,100505.03
2023-12-30T15:03:31.121Z,100526.59
2023-12-30T15:06:01.577Z,100507.59
2023-12-30T15:08:33.981Z,100517.97
2023-12-30T15:11:04.802Z,100512.78
2023-12-30T15:13:35.013Z,100521.41
2023-12-30T15:16:05.472Z,100518.84
2023-12-30T15:18:35.742Z,100520.59
2023-12-30T15:21:06.682Z,100523.16
2023-12-30T15:23:37.039Z,100516.25
2023-12-30T15:26:08.362Z,100527.50
2023-12-30T15:28:38.494Z,100541.31
2023-12-30T15:31:09.162Z,100534.34
2023-12-30T15:33:39.593Z,100530.00
2023-12-30T15:36:10.922Z,100542.09
2023-12-30T15:38:41.230Z,100551.59
2023-12-30T15:41:12.411Z,100561.97
2023-12-30T15:43:42.912Z,100549.00
2023-12-30T15:46:13.385Z,100564.56
2023-12-30T15:48:43.620Z,100561.94
2023-12-30T15:51:14.146Z,100586.97
2023-12-30T15:53:45.977Z,100569.66
2023-12-30T15:56:16.551Z,100569.66
2023-12-30T15:58:46.931Z,100586.06
2023-12-30T16:01:17.518Z,100580.88
2023-12-30T16:03:47.673Z,100580.91
2023-12-30T16:06:18.221Z,100587.78
2023-12-30T16:08:48.524Z,100581.75
2023-12-30T16:11:18.836Z,100598.19
2023-12-30T16:13:49.033Z,100592.06
2023-12-30T16:16:19.514Z,100609.16
2023-12-30T16:18:50.052Z,100596.25
2023-12-30T16:21:20.571Z,100606.56
2023-12-30T16:23:50.930Z,100602.28
2023-12-30T16:26:23.868Z,100603.22
2023-12-30T16:28:54.720Z,100609.28
2023-12-30T16:31:25.475Z,100613.59
2023-12-30T16:33:55.825Z,100616.91
2023-12-30T16:36:26.727Z,100624.56
2023-12-30T16:38:57.612Z,100627.97
2023-12-30T16:41:27.983Z,100628.81
2023-12-30T16:43:58.868Z,100631.47
2023-12-30T16:46:29.867Z,100634.91
2023-12-30T16:49:00.845Z,100634.94
2023-12-30T16:51:32.525Z,100639.25
2023-12-30T16:54:03.596Z,100639.25
2023-12-30T16:56:34.276Z,100643.59
2023-12-30T16:59:04.303Z,100643.56
2023-12-30T17:01:35.959Z,100642.69
2023-12-30T17:04:06.026Z,100656.44
2023-12-30T17:06:36.510Z,100657.28
2023-12-30T17:09:06.584Z,100657.41
2023-12-30T17:11:40.815Z,100659.13
2023-12-30T17:14:11.131Z,100672.13
2023-12-30T17:16:41.724Z,100673.75
2023-12-30T17:19:12.300Z,100680.63
2023-12-30T17:21:42.793Z,100690.88
2023-12-30T17:24:13.130Z,100689.06
2023-12-30T17:26:43.699Z,100685.50
2023-12-30T17:29:14.114Z,100694.09
2023-12-30T17:31:44.503Z,100698.19
2023-12-30T17:34:14.603Z,100704.28
2023-12-30T17:36:45.058Z,100706.03
2023-12-30T17:39:15.801Z,100702.56
2023-12-30T17:41:46.105Z,100703.50
2023-12-30T17:44:16.505Z,100716.53
2023-12-30T17:46:46.931Z,100719.97
2023-12-30T17:49:17.157Z,100725.97
2023-12-30T17:51:47.553Z,100704.28
2023-12-30T17:54:17.966Z,100718.16
2023-12-30T17:56:48.479Z,100731.16
2023-12-30T17:59:18.600Z,100742.44
2023-12-30T18:01:49.196Z,100730.34
2023-12-30T18:04:19.333Z,100734.66
2023-12-30T18:06:49.682Z,100739.88
2023-12-30T18:09:19.892Z,100747.69
2023-12-30T18:11:50.436Z,100753.72
2023-12-30T18:14:23.159Z,100746.78
2023-12-30T18:16:53.504Z,100751.13
2023-12-30T18:19:23.869Z,100741.59
2023-12-30T18:21:59.828Z,100749.41
2023-12-30T18:24:30.082Z,100747.69
2023-12-30T18:27:01.940Z,100755.47
2023-12-30T18:29:32.453Z,100760.63
2023-12-30T18:32:03.223Z,100764.16
2023-12-30T18:34:35.630Z,100764.22
2023-12-30T18:37:08.368Z,100772.03
2023-12-30T18:39:38.502Z,100775.47
2023-12-30T18:42:09.734Z,100778.00
2023-12-30T18:44:40.983Z,100779.69
2023-12-30T18:47:11.387Z,100773.66
2023-12-30T18:49:41.888Z,100783.97
2023-12-30T18:52:12.892Z,100777.91
2023-12-30T18:54:42.874Z,100783.94
2023-12-30T18:57:13.256Z,100775.28
2023-12-30T18:59:43.637Z,100788.22
2023-12-30T19:02:13.969Z,100795.97
2023-12-30T19:04:45.096Z,100802.00
2023-12-30T19:07:15.558Z,100792.50
2023-12-30T19:09:45.717Z,100796.81
2023-12-30T19:12:16.265Z,100801.13
2023-12-30T19:14:46.454Z,100795.03
2023-12-30T19:17:17.038Z,100805.28
2023-12-30T19:19:47.075Z,100809.56
2023-12-30T19:22:17.425Z,100794.00
2023-12-30T19:24:47.561Z,100802.56
2023-12-30T19:27:18.135Z,100805.09
2023-12-30T19:29:48.300Z,100812.00
2023-12-30T19:32:18.434Z,100818.06
2023-12-30T19:34:49.301Z,100825.03
2023-12-30T19:37:19.900Z,100835.38
2023-12-30T19:39:51.156Z,100840.47
2023-12-30T19:42:21.650Z,100838.72
2023-12-30T19:44:51.931Z,100837.81
2023-12-30T19:47:22.223Z,100840.38
2023-12-30T19:49:52.314Z,100848.13
2023-12-30T19:52:22.908Z,100852.22
2023-12-30T19:54:53.159Z,100860.84
2023-12-30T19:57:25.852Z,100855.59
2023-12-30T19:59:55.965Z,100861.50
2023-12-30T20:02:26.422Z,100860.56
2023-12-30T20:04:57.109Z,100869.91
2023-12-30T20:07:28.086Z,100869.00
2023-12-30T20:09:58.115Z,100887.06
2023-12-30T20:12:29.729Z,100890.53
2023-12-30T20:14:59.956Z,100883.69
2023-12-30T20:17:30.332Z,100905.31
2023-12-30T20:20:03.037Z,100894.13
2023-12-30T20:22:34.345Z,100895.00
2023-12-30T20:25:05.770Z,100896.63
2023-12-30T20:27:37.292Z,100898.22
2023-12-30T20:30:08.527Z,100895.59
2023-12-30T20:32:39.063Z,100896.50
2023-12-30T20:35:09.319Z,100899.16
2023-12-30T20:37:40.016Z,100902.75
2023-12-30T20:40:11.274Z,100909.66
2023-12-30T20:42:41.563Z,100901.06
2023-12-30T20:45:14.404Z,100905.44
2023-12-30T20:47:45.012Z,100908.06
2023-12-30T20:50:15.101Z,100916.66
2023-12-30T20:52:45.620Z,100914.16
2023-12-30T20:55:16.781Z,100918.50
2023-12-30T20:57:49.609Z,100917.66
2023-12-30T21:00:23.429Z,100919.38
2023-12-30T21:02:54.007Z,100922.88
2023-12-30T21:05:24.179Z,100915.03
2023-12-30T21:07:57.384Z,100918.41
2023-12-30T21:10:27.524Z,100918.47
2023-12-30T21:12:58.195Z,100919.38
2023-12-30T21:15:28.378Z,100911.63
2023-12-30T21:17:58.859Z,100922.78
2023-12-30T21:20:29.050Z,100923.63
2023-12-30T21:22:59.535Z,100928.81
2023-12-30T21:25:29.959Z,100924.56
2023-12-30T21:28:00.421Z,100926.22
2023-12-30T21:30:30.621Z,100932.22
2023-12-30T21:33:01.292Z,100925.19
2023-12-30T21:35:31.562Z,100939.03
2023-12-30T21:38:02.357Z,100938.13
2023-12-30T21:40:32.793Z,100934.78
2023-12-30T21:43:03.451Z,100937.47
2023-12-30T21:45:33.726Z,100940.94
2023-12-30T21:48:05.300Z,100936.59
2023-12-30T21:50:35.511Z,100940.84
2023-12-30T21:53:06.118Z,100939.03
2023-12-30T21:55:36.394Z,100944.19
2023-12-30T21:58:06.599Z,100943.31
2023-12-30T22:00:39.373Z,100940.81
2023-12-30T22:03:11.294Z,100950.41
2023-12-30T22:05:42.386Z,100947.84
2023-12-30T22:08:14.700Z,100959.09
2023-12-30T22:10:45.060Z,100960.81
2023-12-30T22:13:15.863Z,100966.84
2023-12-30T22:15:45.790Z,100968.53
2023-12-30T22:18:16.343Z,100976.31
2023-12-30T22:20:46.643Z,100973.66
2023-12-30T22:23:19.298Z,100981.34
2023-12-30T22:25:50.137Z,100987.31
2023-12-30T22:28:20.527Z,100990.72
2023-12-30T22:30:50.542Z,100991.56
2023-12-30T22:33:21.023Z,100986.44
2023-12-30T22:35:51.204Z,100992.44
2023-12-30T22:38:21.377Z,101001.09
2023-12-30T22:40:51.596Z,100992.47
2023-12-30T22:43:22.013Z,100996.84
2023-12-30T22:45:52.643Z,100998.69
2023-12-30T22:48:23.277Z,101008.16
2023-12-30T22:50:53.665Z,100999.50
2023-12-30T22:53:24.056Z,101004.75
2023-12-30T22:55:54.306Z,101003.91
2023-12-30T22:58:24.806Z,101017.75
2023-12-30T23:00:55.098Z,101010.06
2023-12-30T23:03:25.616Z,101012.69
2023-12-30T23:05:56.964Z,101013.53
2023-12-30T23:08:27.454Z,101009.25
2023-12-30T23:10:57.622Z,101008.38
2023-12-30T23:13:27.872Z,101004.81
2023-12-30T23:15:58.239Z,101000.41
2023-12-30T23:18:28.575Z,101011.53
2023-12-30T23:20:58.656Z,101008.03
2023-12-30T23:23:29.115Z,101002.03
2023-12-30T23:25:59.565Z,101004.56
2023-12-30T23:28:29.925Z,101003.59
2023-12-30T23:31:00.256Z,101000.00
2023-12-30T23:33:30.487Z,101001.66
2023-12-30T23:36:03.528Z,101009.41
2023-12-30T23:38:33.754Z,100994.69
2023-12-30T23:41:04.379Z,101008.44
2023-12-30T23:43:34.870Z,101010.13
2023-12-30T23:46:05.103Z,101014.34
2023-12-30T23:48:35.529Z,101013.53
2023-12-30T23:51:05.671Z,101011.78
2023-12-30T23:53:37.457Z,101010.88
2023-12-30T23:56:07.666Z,101005.59
2023-12-30T23:58:38.482Z,101010.72
